Terminal Aerodrome Forecast
Issued by NWS

Home | Current Version | Previous Version | Graphics & Text | Print | Product List | Glossary On
Versions: 1 2 3 4 5 6 7 8 9 10 11 12 13 14 15 16 17 18 19 20 21 22 23 24
000
FTUS43 KBIS 201700
TAFMOT
TAF
KMOT 201736Z 2018/2118 32023G35KT P6SM FEW250
     FM210200 32015G23KT P6SM FEW250
     FM210500 31010KT P6SM SCT250
     FM210800 30008KT P6SM BKN070
     FM211300 31010KT P6SM SCT250=

USA.gov is the U.S. government's official web portal to all federal, state and local government web resources and services.